sensor_id;sensor_type;location;lat;lon;timestamp;temperature;humidity
17452;DHT22;8843;48.838;9.324;2023-05-21T00:02:13;17.20;83.50
17452;DHT22;8843;48.838;9.324;2023-05-21T00:04:43;17.20;83.60
17452;DHT22;8843;48.838;9.324;2023-05-21T00:07:10;17.20;83.60
17452;DHT22;8843;48.838;9.324;2023-05-21T00:09:38;17.20;83.70
17452;DHT22;8843;48.838;9.324;2023-05-21T00:12:06;17.20;83.60
17452;DHT22;8843;48.838;9.324;2023-05-21T00:14:35;17.20;83.60
17452;DHT22;8843;48.838;9.324;2023-05-21T00:17:02;17.20;83.80
17452;DHT22;8843;48.838;9.324;2023-05-21T00:19:29;17.20;83.90
17452;DHT22;8843;48.838;9.324;2023-05-21T00:21:57;17.20;83.80
17452;DHT22;8843;48.838;9.324;2023-05-21T00:24:26;17.20;84.10
17452;DHT22;8843;48.838;9.324;2023-05-21T00:26:53;17.20;84.10
17452;DHT22;8843;48.838;9.324;2023-05-21T00:29:20;17.20;84.30
17452;DHT22;8843;48.838;9.324;2023-05-21T00:31:49;17.20;84.30
17452;DHT22;8843;48.838;9.324;2023-05-21T00:34:16;17.20;84.40
17452;DHT22;8843;48.838;9.324;2023-05-21T00:36:44;17.20;84.50
17452;DHT22;8843;48.838;9.324;2023-05-21T00:39:11;17.20;84.50
17452;DHT22;8843;48.838;9.324;2023-05-21T00:41:38;17.20;84.50
17452;DHT22;8843;48.838;9.324;2023-05-21T00:44:07;17.20;85.30
17452;DHT22;8843;48.838;9.324;2023-05-21T00:46:35;17.10;84.40
17452;DHT22;8843;48.838;9.324;2023-05-21T00:49:03;17.20;84.50
17452;DHT22;8843;48.838;9.324;2023-05-21T00:51:31;17.10;84.50
17452;DHT22;8843;48.838;9.324;2023-05-21T00:53:58;17.10;84.60
17452;DHT22;8843;48.838;9.324;2023-05-21T00:56:26;17.10;84.60
17452;DHT22;8843;48.838;9.324;2023-05-21T00:58:53;17.10;84.50
17452;DHT22;8843;48.838;9.324;2023-05-21T01:01:21;17.10;84.40
17452;DHT22;8843;48.838;9.324;2023-05-21T01:03:50;17.10;84.40
17452;DHT22;8843;48.838;9.324;2023-05-21T01:06:20;17.10;84.50
17452;DHT22;8843;48.838;9.324;2023-05-21T01:08:47;17.10;84.50
17452;DHT22;8843;48.838;9.324;2023-05-21T01:11:15;17.10;84.50
17452;DHT22;8843;48.838;9.324;2023-05-21T01:13:43;17.10;84.60
17452;DHT22;8843;48.838;9.324;2023-05-21T01:16:12;17.10;84.60
17452;DHT22;8843;48.838;9.324;2023-05-21T01:18:39;17.10;84.70
17452;DHT22;8843;48.838;9.324;2023-05-21T01:21:07;17.10;84.70
17452;DHT22;8843;48.838;9.324;2023-05-21T01:23:36;17.10;84.70
17452;DHT22;8843;48.838;9.324;2023-05-21T01:26:03;17.10;84.70
17452;DHT22;8843;48.838;9.324;2023-05-21T01:28:31;17.10;84.70
17452;DHT22;8843;48.838;9.324;2023-05-21T01:31:04;17.10;84.70
17452;DHT22;8843;48.838;9.324;2023-05-21T01:33:42;17.10;84.70
17452;DHT22;8843;48.838;9.324;2023-05-21T01:36:16;17.10;84.60
17452;DHT22;8843;48.838;9.324;2023-05-21T01:38:51;17.10;84.60
17452;DHT22;8843;48.838;9.324;2023-05-21T01:41:24;17.00;84.70
17452;DHT22;8843;48.838;9.324;2023-05-21T01:43:53;17.10;84.70
17452;DHT22;8843;48.838;9.324;2023-05-21T01:46:23;17.00;84.60
17452;DHT22;8843;48.838;9.324;2023-05-21T01:48:54;17.00;84.50
17452;DHT22;8843;48.838;9.324;2023-05-21T01:51:22;17.00;84.50
17452;DHT22;8843;48.838;9.324;2023-05-21T01:53:51;17.10;84.60
17452;DHT22;8843;48.838;9.324;2023-05-21T01:56:18;17.00;84.50
17452;DHT22;8843;48.838;9.324;2023-05-21T01:58:47;17.10;84.60
17452;DHT22;8843;48.838;9.324;2023-05-21T02:01:14;17.00;84.60
17452;DHT22;8843;48.838;9.324;2023-05-21T02:03:41;17.00;84.40
17452;DHT22;8843;48.838;9.324;2023-05-21T02:06:08;17.00;84.40
17452;DHT22;8843;48.838;9.324;2023-05-21T02:08:35;17.00;84.20
17452;DHT22;8843;48.838;9.324;2023-05-21T02:11:04;17.00;84.10
17452;DHT22;8843;48.838;9.324;2023-05-21T02:13:31;17.00;84.10
17452;DHT22;8843;48.838;9.324;2023-05-21T02:15:58;17.00;84.80
17452;DHT22;8843;48.838;9.324;2023-05-21T02:18:26;17.00;84.00
17452;DHT22;8843;48.838;9.324;2023-05-21T02:20:53;17.00;84.00
17452;DHT22;8843;48.838;9.324;2023-05-21T02:23:20;17.00;84.00
17452;DHT22;8843;48.838;9.324;2023-05-21T02:25:47;17.00;84.00
17452;DHT22;8843;48.838;9.324;2023-05-21T02:28:16;17.00;84.10
17452;DHT22;8843;48.838;9.324;2023-05-21T02:30:42;17.00;84.00
17452;DHT22;8843;48.838;9.324;2023-05-21T02:33:09;17.00;84.70
17452;DHT22;8843;48.838;9.324;2023-05-21T02:35:38;17.00;84.00
17452;DHT22;8843;48.838;9.324;2023-05-21T02:38:06;17.00;84.00
17452;DHT22;8843;48.838;9.324;2023-05-21T02:40:33;17.00;83.50
17452;DHT22;8843;48.838;9.324;2023-05-21T02:43:00;17.00;84.30
17452;DHT22;8843;48.838;9.324;2023-05-21T02:45:29;17.00;83.70
17452;DHT22;8843;48.838;9.324;2023-05-21T02:47:55;17.00;83.50
17452;DHT22;8843;48.838;9.324;2023-05-21T02:50:22;17.00;83.70
17452;DHT22;8843;48.838;9.324;2023-05-21T02:52:49;17.00;83.70
17452;DHT22;8843;48.838;9.324;2023-05-21T02:55:16;17.00;83.70
17452;DHT22;8843;48.838;9.324;2023-05-21T02:57:43;17.00;83.60
17452;DHT22;8843;48.838;9.324;2023-05-21T03:00:11;17.00;83.60
17452;DHT22;8843;48.838;9.324;2023-05-21T03:02:39;17.00;83.40
17452;DHT22;8843;48.838;9.324;2023-05-21T03:05:07;17.00;83.30
17452;DHT22;8843;48.838;9.324;2023-05-21T03:07:33;17.00;83.40
17452;DHT22;8843;48.838;9.324;2023-05-21T03:10:00;17.00;83.50
17452;DHT22;8843;48.838;9.324;2023-05-21T03:12:27;17.00;83.30
17452;DHT22;8843;48.838;9.324;2023-05-21T03:14:54;17.00;83.20
17452;DHT22;8843;48.838;9.324;2023-05-21T03:17:21;17.00;83.20
17452;DHT22;8843;48.838;9.324;2023-05-21T03:19:49;17.00;83.30
17452;DHT22;8843;48.838;9.324;2023-05-21T03:22:16;17.00;83.30
17452;DHT22;8843;48.838;9.324;2023-05-21T03:24:44;16.90;83.00
17452;DHT22;8843;48.838;9.324;2023-05-21T03:27:11;17.00;83.10
17452;DHT22;8843;48.838;9.324;2023-05-21T03:29:38;17.00;83.30
17452;DHT22;8843;48.838;9.324;2023-05-21T03:32:05;17.00;83.30
17452;DHT22;8843;48.838;9.324;2023-05-21T03:34:32;16.90;83.00
17452;DHT22;8843;48.838;9.324;2023-05-21T03:37:01;16.90;83.00
17452;DHT22;8843;48.838;9.324;2023-05-21T03:39:28;16.90;82.90
17452;DHT22;8843;48.838;9.324;2023-05-21T03:41:55;16.90;83.00
17452;DHT22;8843;48.838;9.324;2023-05-21T03:44:22;16.90;83.10
17452;DHT22;8843;48.838;9.324;2023-05-21T03:46:49;16.90;82.30
17452;DHT22;8843;48.838;9.324;2023-05-21T03:49:15;16.90;82.90
17452;DHT22;8843;48.838;9.324;2023-05-21T03:51:42;16.90;82.90
17452;DHT22;8843;48.838;9.324;2023-05-21T03:54:10;16.90;83.60
17452;DHT22;8843;48.838;9.324;2023-05-21T03:56:37;16.90;82.90
17452;DHT22;8843;48.838;9.324;2023-05-21T03:59:04;16.90;82.90
17452;DHT22;8843;48.838;9.324;2023-05-21T04:01:31;16.90;82.90
17452;DHT22;8843;48.838;9.324;2023-05-21T04:03:58;16.90;82.90
17452;DHT22;8843;48.838;9.324;2023-05-21T04:06:25;16.90;83.00
17452;DHT22;8843;48.838;9.324;2023-05-21T04:08:52;16.90;82.90
17452;DHT22;8843;48.838;9.324;2023-05-21T04:11:20;16.90;82.90
17452;DHT22;8843;48.838;9.324;2023-05-21T04:13:47;16.90;82.90
17452;DHT22;8843;48.838;9.324;2023-05-21T04:16:14;16.90;82.90
17452;DHT22;8843;48.838;9.324;2023-05-21T04:18:43;16.90;82.90
17452;DHT22;8843;48.838;9.324;2023-05-21T04:21:10;16.90;82.90
17452;DHT22;8843;48.838;9.324;2023-05-21T04:23:37;16.90;82.90
17452;DHT22;8843;48.838;9.324;2023-05-21T04:26:04;16.90;82.90
17452;DHT22;8843;48.838;9.324;2023-05-21T04:28:33;16.90;82.90
17452;DHT22;8843;48.838;9.324;2023-05-21T04:31:00;16.90;82.90
17452;DHT22;8843;48.838;9.324;2023-05-21T04:33:27;16.90;82.90
17452;DHT22;8843;48.838;9.324;2023-05-21T04:35:54;16.90;82.90
17452;DHT22;8843;48.838;9.324;2023-05-21T04:38:22;16.90;83.70
17452;DHT22;8843;48.838;9.324;2023-05-21T04:40:50;16.90;82.90
17452;DHT22;8843;48.838;9.324;2023-05-21T04:43:17;16.90;82.90
17452;DHT22;8843;48.838;9.324;2023-05-21T04:45:51;16.90;82.90
17452;DHT22;8843;48.838;9.324;2023-05-21T04:48:19;16.90;83.00
17452;DHT22;8843;48.838;9.324;2023-05-21T04:50:47;16.80;82.80
17452;DHT22;8843;48.838;9.324;2023-05-21T04:53:14;16.90;82.90
17452;DHT22;8843;48.838;9.324;2023-05-21T04:55:41;16.90;82.90
17452;DHT22;8843;48.838;9.324;2023-05-21T04:58:08;16.90;83.00
17452;DHT22;8843;48.838;9.324;2023-05-21T05:00:36;16.80;82.90
17452;DHT22;8843;48.838;9.324;2023-05-21T05:03:04;16.90;83.00
17452;DHT22;8843;48.838;9.324;2023-05-21T05:05:31;16.80;83.80
17452;DHT22;8843;48.838;9.324;2023-05-21T05:07:58;16.80;83.00
17452;DHT22;8843;48.838;9.324;2023-05-21T05:10:25;16.80;83.00
17452;DHT22;8843;48.838;9.324;2023-05-21T05:12:52;16.80;83.00
17452;DHT22;8843;48.838;9.324;2023-05-21T05:15:19;16.80;83.00
17452;DHT22;8843;48.838;9.324;2023-05-21T05:17:46;16.80;83.70
17452;DHT22;8843;48.838;9.324;2023-05-21T05:20:16;16.80;83.50
17452;DHT22;8843;48.838;9.324;2023-05-21T05:22:43;16.80;83.20
17452;DHT22;8843;48.838;9.324;2023-05-21T05:25:10;16.80;83.20
17452;DHT22;8843;48.838;9.324;2023-05-21T05:27:37;16.80;83.20
17452;DHT22;8843;48.838;9.324;2023-05-21T05:30:05;16.80;83.20
17452;DHT22;8843;48.838;9.324;2023-05-21T05:32:32;16.80;83.10
17452;DHT22;8843;48.838;9.324;2023-05-21T05:34:59;16.80;83.30
17452;DHT22;8843;48.838;9.324;2023-05-21T05:37:27;16.80;83.20
17452;DHT22;8843;48.838;9.324;2023-05-21T05:39:54;16.70;84.40
17452;DHT22;8843;48.838;9.324;2023-05-21T05:42:21;16.70;84.90
17452;DHT22;8843;48.838;9.324;2023-05-21T05:44:47;16.80;84.50
17452;DHT22;8843;48.838;9.324;2023-05-21T05:47:15;16.80;84.10
17452;DHT22;8843;48.838;9.324;2023-05-21T05:49:42;16.80;84.10
17452;DHT22;8843;48.838;9.324;2023-05-21T05:52:08;16.80;84.10
17452;DHT22;8843;48.838;9.324;2023-05-21T05:54:37;16.80;84.20
17452;DHT22;8843;48.838;9.324;2023-05-21T05:57:04;16.80;84.20
17452;DHT22;8843;48.838;9.324;2023-05-21T05:59:31;16.80;84.20
17452;DHT22;8843;48.838;9.324;2023-05-21T06:01:58;16.80;84.40
17452;DHT22;8843;48.838;9.324;2023-05-21T06:04:25;16.80;84.40
17452;DHT22;8843;48.838;9.324;2023-05-21T06:06:54;16.80;84.90
17452;DHT22;8843;48.838;9.324;2023-05-21T06:09:22;16.80;84.80
17452;DHT22;8843;48.838;9.324;2023-05-21T06:11:50;16.80;85.60
17452;DHT22;8843;48.838;9.324;2023-05-21T06:14:17;16.80;84.80
17452;DHT22;8843;48.838;9.324;2023-05-21T06:16:44;16.80;84.60
17452;DHT22;8843;48.838;9.324;2023-05-21T06:19:11;16.80;84.80
17452;DHT22;8843;48.838;9.324;2023-05-21T06:21:38;16.80;84.60
17452;DHT22;8843;48.838;9.324;2023-05-21T06:24:05;16.80;84.60
17452;DHT22;8843;48.838;9.324;2023-05-21T06:26:32;16.80;84.70
17452;DHT22;8843;48.838;9.324;2023-05-21T06:29:00;16.80;85.10
17452;DHT22;8843;48.838;9.324;2023-05-21T06:31:28;16.80;85.30
17452;DHT22;8843;48.838;9.324;2023-05-21T06:33:57;16.70;85.10
17452;DHT22;8843;48.838;9.324;2023-05-21T06:36:25;16.70;85.50
17452;DHT22;8843;48.838;9.324;2023-05-21T06:38:54;16.80;85.70
17452;DHT22;8843;48.838;9.324;2023-05-21T06:41:21;16.70;85.50
17452;DHT22;8843;48.838;9.324;2023-05-21T06:43:48;16.70;86.00
17452;DHT22;8843;48.838;9.324;2023-05-21T06:46:16;16.70;86.00
17452;DHT22;8843;48.838;9.324;2023-05-21T06:48:43;16.80;85.60
17452;DHT22;8843;48.838;9.324;2023-05-21T06:51:11;17.00;84.90
17452;DHT22;8843;48.838;9.324;2023-05-21T06:53:38;17.00;87.90
17452;DHT22;8843;48.838;9.324;2023-05-21T06:56:05;17.10;87.20
17452;DHT22;8843;48.838;9.324;2023-05-21T06:58:32;17.10;86.00
17452;DHT22;8843;48.838;9.324;2023-05-21T07:00:59;17.10;85.60
17452;DHT22;8843;48.838;9.324;2023-05-21T07:03:28;17.20;85.90
17452;DHT22;8843;48.838;9.324;2023-05-21T07:05:55;17.20;85.70
17452;DHT22;8843;48.838;9.324;2023-05-21T07:08:22;17.20;87.30
17452;DHT22;8843;48.838;9.324;2023-05-21T07:10:49;17.20;87.20
17452;DHT22;8843;48.838;9.324;2023-05-21T07:13:20;17.10;87.00
17452;DHT22;8843;48.838;9.324;2023-05-21T07:15:47;17.00;87.50
17452;DHT22;8843;48.838;9.324;2023-05-21T07:18:14;17.00;88.10
17452;DHT22;8843;48.838;9.324;2023-05-21T07:20:43;17.00;88.10
17452;DHT22;8843;48.838;9.324;2023-05-21T07:23:09;16.90;88.80
17452;DHT22;8843;48.838;9.324;2023-05-21T07:25:36;16.90;88.90
17452;DHT22;8843;48.838;9.324;2023-05-21T07:28:04;16.90;89.00
17452;DHT22;8843;48.838;9.324;2023-05-21T07:30:30;16.90;89.80
17452;DHT22;8843;48.838;9.324;2023-05-21T07:32:57;16.90;90.00
17452;DHT22;8843;48.838;9.324;2023-05-21T07:35:24;16.90;90.20
17452;DHT22;8843;48.838;9.324;2023-05-21T07:37:53;17.00;90.30
17452;DHT22;8843;48.838;9.324;2023-05-21T07:40:19;17.20;88.50
17452;DHT22;8843;48.838;9.324;2023-05-21T07:42:46;17.30;87.60
17452;DHT22;8843;48.838;9.324;2023-05-21T07:45:13;17.30;90.30
17452;DHT22;8843;48.838;9.324;2023-05-21T07:47:41;17.40;90.10
17452;DHT22;8843;48.838;9.324;2023-05-21T07:50:08;17.40;90.70
17452;DHT22;8843;48.838;9.324;2023-05-21T07:52:36;17.40;90.20
17452;DHT22;8843;48.838;9.324;2023-05-21T07:55:05;17.40;90.00
17452;DHT22;8843;48.838;9.324;2023-05-21T07:57:32;17.40;87.60
17452;DHT22;8843;48.838;9.324;2023-05-21T07:59:59;17.40;88.70
17452;DHT22;8843;48.838;9.324;2023-05-21T08:02:27;17.50;89.80
17452;DHT22;8843;48.838;9.324;2023-05-21T08:04:53;17.50;89.10
17452;DHT22;8843;48.838;9.324;2023-05-21T08:07:20;17.50;89.50
17452;DHT22;8843;48.838;9.324;2023-05-21T08:09:47;17.50;89.90
17452;DHT22;8843;48.838;9.324;2023-05-21T08:12:15;17.40;88.80
17452;DHT22;8843;48.838;9.324;2023-05-21T08:14:44;17.50;88.70
17452;DHT22;8843;48.838;9.324;2023-05-21T08:17:11;17.50;90.00
17452;DHT22;8843;48.838;9.324;2023-05-21T08:19:38;17.50;89.70
17452;DHT22;8843;48.838;9.324;2023-05-21T08:22:06;17.50;89.70
17452;DHT22;8843;48.838;9.324;2023-05-21T08:24:33;17.50;90.00
17452;DHT22;8843;48.838;9.324;2023-05-21T08:27:00;17.60;90.00
17452;DHT22;8843;48.838;9.324;2023-05-21T08:29:29;17.80;90.50
17452;DHT22;8843;48.838;9.324;2023-05-21T08:31:57;17.90;90.40
17452;DHT22;8843;48.838;9.324;2023-05-21T08:34:24;18.00;90.50
17452;DHT22;8843;48.838;9.324;2023-05-21T08:36:51;18.00;90.40
17452;DHT22;8843;48.838;9.324;2023-05-21T08:39:18;18.00;90.20
17452;DHT22;8843;48.838;9.324;2023-05-21T08:41:46;18.00;90.50
17452;DHT22;8843;48.838;9.324;2023-05-21T08:44:19;18.00;90.80
17452;DHT22;8843;48.838;9.324;2023-05-21T08:46:48;18.10;90.70
17452;DHT22;8843;48.838;9.324;2023-05-21T08:49:17;18.00;89.30
17452;DHT22;8843;48.838;9.324;2023-05-21T08:51:48;18.10;90.40
17452;DHT22;8843;48.838;9.324;2023-05-21T08:54:15;18.10;90.70
17452;DHT22;8843;48.838;9.324;2023-05-21T08:56:43;18.30;90.40
17452;DHT22;8843;48.838;9.324;2023-05-21T08:59:12;18.20;90.20
17452;DHT22;8843;48.838;9.324;2023-05-21T09:01:40;18.20;90.20
17452;DHT22;8843;48.838;9.324;2023-05-21T09:04:10;18.10;90.70
17452;DHT22;8843;48.838;9.324;2023-05-21T09:06:39;18.20;90.90
17452;DHT22;8843;48.838;9.324;2023-05-21T09:09:13;18.20;90.80
17452;DHT22;8843;48.838;9.324;2023-05-21T09:11:43;18.20;90.90
17452;DHT22;8843;48.838;9.324;2023-05-21T09:14:12;18.30;90.80
17452;DHT22;8843;48.838;9.324;2023-05-21T09:16:40;18.30;90.90
17452;DHT22;8843;48.838;9.324;2023-05-21T09:19:08;18.30;90.70
17452;DHT22;8843;48.838;9.324;2023-05-21T09:21:37;18.30;90.10
17452;DHT22;8843;48.838;9.324;2023-05-21T09:24:05;18.50;90.80
17452;DHT22;8843;48.838;9.324;2023-05-21T09:26:34;18.70;91.00
17452;DHT22;8843;48.838;9.324;2023-05-21T09:29:02;19.00;91.00
17452;DHT22;8843;48.838;9.324;2023-05-21T09:31:28;18.90;90.90
17452;DHT22;8843;48.838;9.324;2023-05-21T09:33:57;19.00;91.00
17452;DHT22;8843;48.838;9.324;2023-05-21T09:36:26;19.00;90.90
17452;DHT22;8843;48.838;9.324;2023-05-21T09:38:53;19.30;90.40
17452;DHT22;8843;48.838;9.324;2023-05-21T09:41:30;19.40;90.50
17452;DHT22;8843;48.838;9.324;2023-05-21T09:43:58;19.70;90.70
17452;DHT22;8843;48.838;9.324;2023-05-21T09:46:25;19.80;89.00
17452;DHT22;8843;48.838;9.324;2023-05-21T09:48:52;19.90;90.20
17452;DHT22;8843;48.838;9.324;2023-05-21T09:51:20;20.00;89.00
17452;DHT22;8843;48.838;9.324;2023-05-21T09:53:50;20.10;88.50
17452;DHT22;8843;48.838;9.324;2023-05-21T09:56:21;20.30;88.80
17452;DHT22;8843;48.838;9.324;2023-05-21T09:58:51;19.90;85.10
17452;DHT22;8843;48.838;9.324;2023-05-21T10:01:19;20.30;87.10
17452;DHT22;8843;48.838;9.324;2023-05-21T10:03:49;20.40;86.80
17452;DHT22;8843;48.838;9.324;2023-05-21T10:06:19;20.60;86.40
17452;DHT22;8843;48.838;9.324;2023-05-21T10:08:50;20.90;87.10
17452;DHT22;8843;48.838;9.324;2023-05-21T10:11:18;20.80;85.60
17452;DHT22;8843;48.838;9.324;2023-05-21T10:13:54;20.80;84.20
17452;DHT22;8843;48.838;9.324;2023-05-21T10:16:21;20.70;85.10
17452;DHT22;8843;48.838;9.324;2023-05-21T10:18:49;21.00;85.00
17452;DHT22;8843;48.838;9.324;2023-05-21T10:21:18;21.20;84.30
17452;DHT22;8843;48.838;9.324;2023-05-21T10:23:49;21.30;83.90
17452;DHT22;8843;48.838;9.324;2023-05-21T10:26:17;21.40;83.40
17452;DHT22;8843;48.838;9.324;2023-05-21T10:28:46;21.50;83.40
17452;DHT22;8843;48.838;9.324;2023-05-21T10:31:13;21.30;81.50
17452;DHT22;8843;48.838;9.324;2023-05-21T10:33:42;21.30;82.50
17452;DHT22;8843;48.838;9.324;2023-05-21T10:36:10;21.60;82.50
17452;DHT22;8843;48.838;9.324;2023-05-21T10:38:37;21.60;82.00
17452;DHT22;8843;48.838;9.324;2023-05-21T10:41:06;21.70;81.30
17452;DHT22;8843;48.838;9.324;2023-05-21T10:43:44;21.70;81.90
17452;DHT22;8843;48.838;9.324;2023-05-21T10:49:23;22.00;81.70
17452;DHT22;8843;48.838;9.324;2023-05-21T10:52:00;22.10;81.30
17452;DHT22;8843;48.838;9.324;2023-05-21T10:55:00;22.00;78.80
17452;DHT22;8843;48.838;9.324;2023-05-21T10:57:49;21.80;80.00
17452;DHT22;8843;48.838;9.324;2023-05-21T11:00:20;21.60;79.60
17452;DHT22;8843;48.838;9.324;2023-05-21T11:02:50;21.40;81.10
17452;DHT22;8843;48.838;9.324;2023-05-21T11:05:37;21.50;81.30
17452;DHT22;8843;48.838;9.324;2023-05-21T11:08:04;21.90;80.80
17452;DHT22;8843;48.838;9.324;2023-05-21T11:10:36;22.10;79.00
17452;DHT22;8843;48.838;9.324;2023-05-21T11:13:08;22.40;79.20
17452;DHT22;8843;48.838;9.324;2023-05-21T11:16:01;22.60;78.60
17452;DHT22;8843;48.838;9.324;2023-05-21T11:19:00;22.80;77.70
17452;DHT22;8843;48.838;9.324;2023-05-21T11:21:29;22.80;76.70
17452;DHT22;8843;48.838;9.324;2023-05-21T11:23:59;23.00;76.90
17452;DHT22;8843;48.838;9.324;2023-05-21T11:26:28;23.00;76.20
17452;DHT22;8843;48.838;9.324;2023-05-21T11:29:09;22.80;74.70
17452;DHT22;8843;48.838;9.324;2023-05-21T11:31:36;23.00;74.60
17452;DHT22;8843;48.838;9.324;2023-05-21T11:34:13;23.00;74.80
17452;DHT22;8843;48.838;9.324;2023-05-21T11:36:42;23.20;76.20
17452;DHT22;8843;48.838;9.324;2023-05-21T11:39:11;22.90;74.30
17452;DHT22;8843;48.838;9.324;2023-05-21T11:41:58;23.00;73.90
17452;DHT22;8843;48.838;9.324;2023-05-21T11:44:39;23.10;73.40
17452;DHT22;8843;48.838;9.324;2023-05-21T11:47:07;23.20;73.30
17452;DHT22;8843;48.838;9.324;2023-05-21T11:49:35;23.20;73.10
17452;DHT22;8843;48.838;9.324;2023-05-21T11:52:03;23.20;72.30
17452;DHT22;8843;48.838;9.324;2023-05-21T11:54:31;23.20;72.00
17452;DHT22;8843;48.838;9.324;2023-05-21T11:57:01;23.30;71.30
17452;DHT22;8843;48.838;9.324;2023-05-21T11:59:28;23.40;71.10
17452;DHT22;8843;48.838;9.324;2023-05-21T12:01:56;23.20;71.30
17452;DHT22;8843;48.838;9.324;2023-05-21T12:04:23;23.40;71.70
17452;DHT22;8843;48.838;9.324;2023-05-21T12:06:54;23.10;71.00
17452;DHT22;8843;48.838;9.324;2023-05-21T12:09:23;23.30;71.90
17452;DHT22;8843;48.838;9.324;2023-05-21T12:11:50;23.30;71.90
17452;DHT22;8843;48.838;9.324;2023-05-21T12:14:17;23.40;72.10
17452;DHT22;8843;48.838;9.324;2023-05-21T12:16:44;23.40;72.90
17452;DHT22;8843;48.838;9.324;2023-05-21T12:19:16;23.40;72.30
17452;DHT22;8843;48.838;9.324;2023-05-21T12:21:44;23.30;72.70
17452;DHT22;8843;48.838;9.324;2023-05-21T12:24:11;23.20;72.00
17452;DHT22;8843;48.838;9.324;2023-05-21T12:26:40;23.30;72.50
17452;DHT22;8843;48.838;9.324;2023-05-21T12:29:09;23.20;72.20
17452;DHT22;8843;48.838;9.324;2023-05-21T12:31:48;23.20;72.90
17452;DHT22;8843;48.838;9.324;2023-05-21T12:34:36;23.10;71.70
17452;DHT22;8843;48.838;9.324;2023-05-21T12:37:03;23.10;71.60
17452;DHT22;8843;48.838;9.324;2023-05-21T12:39:31;23.10;70.70
17452;DHT22;8843;48.838;9.324;2023-05-21T12:41:58;23.10;70.50
17452;DHT22;8843;48.838;9.324;2023-05-21T12:44:29;23.10;70.00
17452;DHT22;8843;48.838;9.324;2023-05-21T12:46:56;23.10;70.20
17452;DHT22;8843;48.838;9.324;2023-05-21T12:49:32;23.20;70.70
17452;DHT22;8843;48.838;9.324;2023-05-21T12:52:02;22.90;69.20
17452;DHT22;8843;48.838;9.324;2023-05-21T12:54:30;22.90;67.90
17452;DHT22;8843;48.838;9.324;2023-05-21T14:06:56;22.80;61.30
17452;DHT22;8843;48.838;9.324;2023-05-21T14:09:23;22.80;58.30
17452;DHT22;8843;48.838;9.324;2023-05-21T14:11:51;22.70;61.50
17452;DHT22;8843;48.838;9.324;2023-05-21T14:14:21;22.60;64.70
17452;DHT22;8843;48.838;9.324;2023-05-21T14:16:51;22.60;66.20
17452;DHT22;8843;48.838;9.324;2023-05-21T14:19:18;22.60;66.70
17452;DHT22;8843;48.838;9.324;2023-05-21T14:21:45;22.50;66.90
17452;DHT22;8843;48.838;9.324;2023-05-21T14:24:13;22.50;66.80
17452;DHT22;8843;48.838;9.324;2023-05-21T14:26:40;22.50;67.60
17452;DHT22;8843;48.838;9.324;2023-05-21T14:29:07;22.50;67.00
17452;DHT22;8843;48.838;9.324;2023-05-21T14:31:35;22.50;67.30
17452;DHT22;8843;48.838;9.324;2023-05-21T14:34:01;22.30;67.80
17452;DHT22;8843;48.838;9.324;2023-05-21T14:36:29;22.40;68.90
17452;DHT22;8843;48.838;9.324;2023-05-21T14:38:57;22.50;68.90
17452;DHT22;8843;48.838;9.324;2023-05-21T14:41:25;22.50;68.90
17452;DHT22;8843;48.838;9.324;2023-05-21T14:43:52;22.50;69.40
17452;DHT22;8843;48.838;9.324;2023-05-21T14:46:20;22.50;70.00
17452;DHT22;8843;48.838;9.324;2023-05-21T14:48:47;22.50;70.20
17452;DHT22;8843;48.838;9.324;2023-05-21T14:51:14;22.50;70.50
17452;DHT22;8843;48.838;9.324;2023-05-21T14:53:40;22.40;70.00
17452;DHT22;8843;48.838;9.324;2023-05-21T14:56:07;22.40;70.30
17452;DHT22;8843;48.838;9.324;2023-05-21T14:58:36;22.40;70.60
17452;DHT22;8843;48.838;9.324;2023-05-21T15:01:03;22.30;70.20
17452;DHT22;8843;48.838;9.324;2023-05-21T15:03:30;22.40;70.70
17452;DHT22;8843;48.838;9.324;2023-05-21T15:05:56;22.30;71.80
17452;DHT22;8843;48.838;9.324;2023-05-21T15:08:24;22.30;71.20
17452;DHT22;8843;48.838;9.324;2023-05-21T15:10:50;22.30;71.30
17452;DHT22;8843;48.838;9.324;2023-05-21T15:13:17;22.30;71.00
17452;DHT22;8843;48.838;9.324;2023-05-21T15:15:47;22.30;71.50
17452;DHT22;8843;48.838;9.324;2023-05-21T15:18:14;22.30;71.60
17452;DHT22;8843;48.838;9.324;2023-05-21T15:20:41;22.30;71.90
17452;DHT22;8843;48.838;9.324;2023-05-21T15:23:08;22.30;71.70
17452;DHT22;8843;48.838;9.324;2023-05-21T15:25:35;22.20;71.50
17452;DHT22;8843;48.838;9.324;2023-05-21T15:28:02;22.20;71.80
17452;DHT22;8843;48.838;9.324;2023-05-21T15:30:29;22.30;72.20
17452;DHT22;8843;48.838;9.324;2023-05-21T15:32:57;22.30;72.20
17452;DHT22;8843;48.838;9.324;2023-05-21T15:35:24;22.30;72.10
17452;DHT22;8843;48.838;9.324;2023-05-21T15:37:51;22.20;72.50
17452;DHT22;8843;48.838;9.324;2023-05-21T15:40:17;22.20;72.30
17452;DHT22;8843;48.838;9.324;2023-05-21T15:42:44;22.20;72.90
17452;DHT22;8843;48.838;9.324;2023-05-21T15:45:11;22.20;71.30
17452;DHT22;8843;48.838;9.324;2023-05-21T15:47:38;22.20;71.70
17452;DHT22;8843;48.838;9.324;2023-05-21T15:50:09;22.10;71.50
17452;DHT22;8843;48.838;9.324;2023-05-21T15:52:36;22.10;72.00
17452;DHT22;8843;48.838;9.324;2023-05-21T15:55:04;22.10;72.70
17452;DHT22;8843;48.838;9.324;2023-05-21T15:57:31;22.10;73.10
17452;DHT22;8843;48.838;9.324;2023-05-21T15:59:58;22.10;73.70
17452;DHT22;8843;48.838;9.324;2023-05-21T16:02:25;22.10;73.40
17452;DHT22;8843;48.838;9.324;2023-05-21T16:04:52;22.10;74.00
17452;DHT22;8843;48.838;9.324;2023-05-21T16:07:22;22.10;73.70
17452;DHT22;8843;48.838;9.324;2023-05-21T16:09:49;22.10;73.80
17452;DHT22;8843;48.838;9.324;2023-05-21T16:12:16;22.00;73.40
17452;DHT22;8843;48.838;9.324;2023-05-21T16:14:43;22.00;74.00
17452;DHT22;8843;48.838;9.324;2023-05-21T16:17:09;22.00;74.20
17452;DHT22;8843;48.838;9.324;2023-05-21T16:19:36;22.00;74.40
17452;DHT22;8843;48.838;9.324;2023-05-21T16:22:03;22.00;74.50
17452;DHT22;8843;48.838;9.324;2023-05-21T16:24:32;21.80;72.40
17452;DHT22;8843;48.838;9.324;2023-05-21T16:26:58;21.70;74.40
17452;DHT22;8843;48.838;9.324;2023-05-21T16:29:25;21.70;74.80
17452;DHT22;8843;48.838;9.324;2023-05-21T16:31:52;21.80;74.70
17452;DHT22;8843;48.838;9.324;2023-05-21T16:34:19;21.80;74.30
17452;DHT22;8843;48.838;9.324;2023-05-21T16:36:46;21.90;74.80
17452;DHT22;8843;48.838;9.324;2023-05-21T16:39:13;21.90;74.70
17452;DHT22;8843;48.838;9.324;2023-05-21T16:41:42;21.80;74.60
17452;DHT22;8843;48.838;9.324;2023-05-21T16:44:09;21.80;74.50
17452;DHT22;8843;48.838;9.324;2023-05-21T16:46:36;21.80;73.70
17452;DHT22;8843;48.838;9.324;2023-05-21T16:49:03;21.80;74.30
17452;DHT22;8843;48.838;9.324;2023-05-21T16:51:30;21.80;74.50
17452;DHT22;8843;48.838;9.324;2023-05-21T16:53:57;21.80;74.60
17452;DHT22;8843;48.838;9.324;2023-05-21T16:56:24;21.80;74.90
17452;DHT22;8843;48.838;9.324;2023-05-21T16:58:53;21.80;74.60
17452;DHT22;8843;48.838;9.324;2023-05-21T17:01:20;21.80;74.60
17452;DHT22;8843;48.838;9.324;2023-05-21T17:03:47;21.80;74.60
17452;DHT22;8843;48.838;9.324;2023-05-21T17:06:14;21.70;74.20